createdAt,value
2018-10-01T00:01:07.617Z,11.00
2018-10-01T00:04:14.636Z,11.00
2018-10-01T00:07:20.902Z,11.00
2018-10-01T00:10:27.950Z,11.00
2018-10-01T00:13:34.226Z,11.10
2018-10-01T00:16:41.260Z,11.10
2018-10-01T00:19:54.518Z,11.20
2018-10-01T00:23:01.874Z,11.20
2018-10-01T00:26:08.149Z,11.10
2018-10-01T00:29:15.428Z,11.20
2018-10-01T00:32:22.736Z,11.10
2018-10-01T00:35:30.079Z,11.10
2018-10-01T00:38:36.420Z,11.10
2018-10-01T00:41:43.555Z,11.10
2018-10-01T00:44:49.678Z,11.10
2018-10-01T00:47:56.623Z,11.30
2018-10-01T00:51:03.824Z,11.20
2018-10-01T00:54:10.976Z,11.20
2018-10-01T00:57:17.868Z,11.30
2018-10-01T01:00:24.053Z,11.50
2018-10-01T01:03:31.131Z,11.50
2018-10-01T01:06:38.371Z,11.60
2018-10-01T01:09:45.528Z,11.50
2018-10-01T01:12:52.608Z,11.50
2018-10-01T01:15:59.680Z,11.50
2018-10-01T01:19:07.017Z,11.50
2018-10-01T01:22:13.436Z,11.40
2018-10-01T01:25:20.702Z,11.30
2018-10-01T01:28:27.927Z,11.30
2018-10-01T01:31:35.265Z,11.20
2018-10-01T01:34:42.326Z,11.20
2018-10-01T01:37:49.705Z,11.10
2018-10-01T01:40:56.888Z,11.10
2018-10-01T01:44:03.953Z,11.00
2018-10-01T01:47:11.044Z,10.90
2018-10-01T01:50:17.432Z,10.80
2018-10-01T01:53:28.551Z,10.80
2018-10-01T01:56:35.988Z,10.80
2018-10-01T01:59:43.243Z,10.80
2018-10-01T02:02:50.396Z,10.70
2018-10-01T02:05:57.462Z,10.70
2018-10-01T02:09:04.580Z,10.60
2018-10-01T02:12:11.625Z,10.60
2018-10-01T02:15:19.659Z,10.60
2018-10-01T02:18:26.142Z,10.50
2018-10-01T02:21:33.178Z,10.40
2018-10-01T02:24:40.295Z,10.40
2018-10-01T02:27:47.507Z,10.40
2018-10-01T02:30:54.601Z,10.40
2018-10-01T02:34:01.852Z,10.40
2018-10-01T02:37:09.056Z,10.40
2018-10-01T02:40:16.144Z,10.30
2018-10-01T02:43:23.440Z,10.30
2018-10-01T02:46:30.909Z,10.30
2018-10-01T02:49:37.348Z,10.30
2018-10-01T02:52:50.404Z,10.30
2018-10-01T02:55:56.583Z,10.20
2018-10-01T02:59:03.832Z,10.20
2018-10-01T03:02:10.845Z,10.20
2018-10-01T03:05:18.217Z,10.20
2018-10-01T03:08:25.497Z,10.20
2018-10-01T03:11:32.865Z,10.20
2018-10-01T03:14:40.044Z,10.20
2018-10-01T03:17:47.185Z,10.30
2018-10-01T03:20:54.068Z,10.30
2018-10-01T03:24:01.520Z,10.30
2018-10-01T03:27:09.400Z,10.30
2018-10-01T03:30:16.592Z,10.30
2018-10-01T03:33:23.544Z,10.20
2018-10-01T03:36:30.115Z,10.30
2018-10-01T03:39:37.131Z,10.20
2018-10-01T03:42:44.561Z,10.20
2018-10-01T03:45:52.751Z,10.10
2018-10-01T03:48:59.966Z,10.10
2018-10-01T03:52:06.368Z,10.10
2018-10-01T03:55:13.460Z,10.10
2018-10-01T03:58:20.662Z,10.00
2018-10-01T04:01:27.869Z,10.10
2018-10-01T04:04:35.004Z,10.00
2018-10-01T04:07:43.162Z,10.00
2018-10-01T04:10:51.180Z,10.00
2018-10-01T04:13:58.454Z,10.00
2018-10-01T04:17:04.808Z,10.00
2018-10-01T04:20:11.935Z,9.90
2018-10-01T04:23:18.969Z,9.90
2018-10-01T04:26:26.403Z,9.90
2018-10-01T04:29:33.743Z,9.80
2018-10-01T04:32:40.592Z,9.80
2018-10-01T04:35:47.019Z,9.80
2018-10-01T04:38:54.136Z,9.70
2018-10-01T04:42:01.264Z,9.70
2018-10-01T04:45:07.584Z,9.70
2018-10-01T04:48:14.609Z,9.60
2018-10-01T04:51:21.740Z,9.70
2018-10-01T04:54:29.028Z,9.70
2018-10-01T04:57:36.265Z,9.60
2018-10-01T05:00:43.345Z,9.60
2018-10-01T05:03:49.665Z,9.60
2018-10-01T05:06:57.116Z,9.50
2018-10-01T05:10:04.369Z,9.50
2018-10-01T05:13:11.553Z,9.50
2018-10-01T05:16:18.758Z,9.50
2018-10-01T05:19:25.874Z,9.50
2018-10-01T05:22:32.962Z,9.50
2018-10-01T05:25:39.241Z,9.50
2018-10-01T05:28:46.453Z,9.40
2018-10-01T05:31:53.423Z,9.40
2018-10-01T05:35:00.441Z,9.30
2018-10-01T05:38:07.722Z,9.30
2018-10-01T05:41:14.104Z,9.20
2018-10-01T05:44:21.403Z,9.20
2018-10-01T05:47:28.463Z,9.20
2018-10-01T05:50:35.512Z,9.10
2018-10-01T05:53:42.768Z,9.00
2018-10-01T05:56:49.643Z,9.00
2018-10-01T05:59:56.748Z,9.00
2018-10-01T06:03:03.796Z,8.90
2018-10-01T06:06:10.794Z,8.90
2018-10-01T06:09:21.149Z,8.90
2018-10-01T06:12:28.180Z,8.90
2018-10-01T06:15:35.185Z,8.90
2018-10-01T06:18:42.111Z,8.80
2018-10-01T06:21:49.096Z,8.90
2018-10-01T06:24:55.911Z,8.80
2018-10-01T06:28:02.908Z,8.90
2018-10-01T06:31:09.346Z,8.90
2018-10-01T06:34:15.644Z,8.90
2018-10-01T06:37:23.711Z,8.90
2018-10-01T06:40:30.028Z,8.90
2018-10-01T06:43:36.892Z,9.00
2018-10-01T06:46:44.317Z,9.00
2018-10-01T06:49:51.461Z,9.00
2018-10-01T06:52:58.589Z,9.10
2018-10-01T06:56:05.572Z,9.10
2018-10-01T06:59:12.775Z,9.10
2018-10-01T07:02:19.970Z,9.10
2018-10-01T07:05:27.204Z,9.20
2018-10-01T07:08:33.907Z,9.20
2018-10-01T07:11:41.886Z,9.20
2018-10-01T07:14:48.859Z,9.10
2018-10-01T07:17:55.932Z,9.10
2018-10-01T07:21:03.256Z,9.20
2018-10-01T07:24:10.489Z,9.20
2018-10-01T07:27:17.694Z,9.30
2018-10-01T07:30:24.789Z,9.40
2018-10-01T07:33:33.094Z,9.60
2018-10-01T07:36:40.285Z,9.50
2018-10-01T07:39:46.853Z,9.50
2018-10-01T07:42:53.999Z,9.40
2018-10-01T07:46:01.431Z,9.40
2018-10-01T07:49:08.087Z,9.30
2018-10-01T07:52:14.397Z,9.40
2018-10-01T07:55:20.976Z,9.50
2018-10-01T07:58:28.131Z,9.60
2018-10-01T08:01:34.451Z,9.90
2018-10-01T08:04:41.574Z,10.10
2018-10-01T08:07:47.830Z,10.20
2018-10-01T08:10:54.964Z,10.10
2018-10-01T08:14:02.187Z,9.90
2018-10-01T08:17:09.512Z,9.90
2018-10-01T08:20:16.822Z,9.90
2018-10-01T08:23:23.203Z,9.60
2018-10-01T08:26:30.228Z,9.70
2018-10-01T08:29:37.254Z,9.70
2018-10-01T08:32:44.300Z,9.80
2018-10-01T08:35:51.562Z,9.80
2018-10-01T08:38:57.909Z,9.80
2018-10-01T08:42:04.222Z,9.80
2018-10-01T08:45:11.505Z,9.60
2018-10-01T08:48:21.631Z,9.70
2018-10-01T08:52:05.327Z,9.50
2018-10-01T08:55:12.540Z,9.60
2018-10-01T08:58:19.759Z,9.40
2018-10-01T09:01:26.817Z,9.50
2018-10-01T09:04:33.972Z,9.50
2018-10-01T09:07:41.230Z,9.60
2018-10-01T09:10:48.429Z,9.60
2018-10-01T09:13:55.621Z,9.50
2018-10-01T09:17:01.947Z,9.50
2018-10-01T09:20:09.187Z,9.60
2018-10-01T09:23:16.616Z,9.60
2018-10-01T09:26:23.879Z,9.70
2018-10-01T09:29:31.087Z,9.80
2018-10-01T09:32:37.243Z,9.80
2018-10-01T09:35:44.228Z,9.70
2018-10-01T09:38:51.442Z,9.90
2018-10-01T09:41:58.748Z,10.10
2018-10-01T09:45:07.619Z,10.10
2018-10-01T09:48:14.800Z,10.20
2018-10-01T09:51:21.099Z,10.20
2018-10-01T09:54:27.624Z,10.00
2018-10-01T09:57:34.989Z,9.90
2018-10-01T10:00:55.069Z,10.10
2018-10-01T10:04:01.659Z,10.30
2018-10-01T10:07:08.861Z,10.30
2018-10-01T10:10:16.094Z,10.30
2018-10-01T10:13:23.279Z,10.40
2018-10-01T10:16:30.587Z,10.70
2018-10-01T10:19:37.819Z,10.60
2018-10-01T10:22:44.821Z,10.30
2018-10-01T10:25:52.121Z,10.30
2018-10-01T10:28:59.506Z,10.30
2018-10-01T10:32:06.690Z,10.20
2018-10-01T10:35:13.482Z,10.20
2018-10-01T10:38:20.071Z,10.40
2018-10-01T10:41:27.219Z,10.30
2018-10-01T10:44:34.330Z,10.40
2018-10-01T10:47:41.584Z,10.30
2018-10-01T10:50:48.694Z,10.20
2018-10-01T10:53:55.904Z,10.20
2018-10-01T10:57:03.176Z,10.10
2018-10-01T11:00:10.237Z,10.50
2018-10-01T11:03:17.330Z,10.60
2018-10-01T11:06:24.341Z,10.90
2018-10-01T11:09:31.628Z,10.90
2018-10-01T11:12:38.769Z,10.80
2018-10-01T11:15:45.868Z,10.70
2018-10-01T11:18:54.791Z,10.80
2018-10-01T11:22:02.913Z,10.90
2018-10-01T11:25:10.653Z,11.20
2018-10-01T11:28:17.439Z,11.30
2018-10-01T11:31:24.614Z,11.50
2018-10-01T11:34:31.754Z,11.30
2018-10-01T11:37:38.914Z,11.10
2018-10-01T11:40:46.058Z,11.30
2018-10-01T11:43:53.226Z,11.50
2018-10-01T11:47:00.234Z,11.60
2018-10-01T11:50:07.538Z,11.60
2018-10-01T11:53:14.405Z,11.70
2018-10-01T11:56:20.655Z,12.10
2018-10-01T11:59:27.418Z,12.20
2018-10-01T12:02:34.267Z,11.90
2018-10-01T12:05:41.081Z,11.80
2018-10-01T12:08:47.988Z,11.80
2018-10-01T12:11:54.979Z,11.90
2018-10-01T12:15:02.091Z,11.60
2018-10-01T12:18:09.075Z,11.70
2018-10-01T12:21:17.364Z,11.80
2018-10-01T12:24:24.456Z,11.50
2018-10-01T12:27:31.896Z,11.80
2018-10-01T12:30:38.863Z,12.00
2018-10-01T12:33:45.955Z,12.30
2018-10-01T12:36:53.140Z,12.50
2018-10-01T12:40:00.291Z,12.50
2018-10-01T12:43:06.508Z,12.60
2018-10-01T12:46:13.578Z,12.40
2018-10-01T12:49:20.628Z,11.60
2018-10-01T12:52:27.664Z,11.40
2018-10-01T12:55:34.743Z,11.50
2018-10-01T12:58:42.038Z,11.60
2018-10-01T13:01:49.090Z,11.90
2018-10-01T13:04:55.432Z,11.80
2018-10-01T13:08:03.750Z,11.70
2018-10-01T13:11:10.796Z,11.60
2018-10-01T13:14:17.949Z,11.70
2018-10-01T13:17:25.232Z,11.60
2018-10-01T13:20:32.367Z,11.80
2018-10-01T13:23:39.536Z,11.70
2018-10-01T13:26:46.913Z,11.80
2018-10-01T13:29:55.071Z,11.80
2018-10-01T13:33:03.159Z,12.10
2018-10-01T13:36:09.324Z,12.00
2018-10-01T13:39:17.214Z,12.30
2018-10-01T13:42:24.229Z,12.50
2018-10-01T13:45:31.321Z,12.50
2018-10-01T13:48:38.347Z,12.00
2018-10-01T13:51:45.434Z,11.90
2018-10-01T13:54:52.647Z,11.40
2018-10-01T13:57:59.975Z,11.30
2018-10-01T14:01:06.897Z,11.10
2018-10-01T14:04:13.788Z,10.90
2018-10-01T14:07:20.925Z,10.30
2018-10-01T14:10:28.541Z,10.10
2018-10-01T14:13:40.520Z,10.00
2018-10-01T14:16:51.814Z,10.10
2018-10-01T14:20:03.383Z,10.00
2018-10-01T14:23:13.477Z,10.00
2018-10-01T14:26:23.071Z,10.10
2018-10-01T14:29:33.285Z,10.10
2018-10-01T14:32:42.417Z,10.10
2018-10-01T14:35:53.170Z,10.10
2018-10-01T14:39:05.277Z,10.20
2018-10-01T14:42:16.777Z,10.20
2018-10-01T14:45:28.227Z,10.40
2018-10-01T14:48:39.867Z,10.40
2018-10-01T14:51:52.085Z,10.60
2018-10-01T14:55:02.900Z,10.70
2018-10-01T14:58:14.368Z,10.70
2018-10-01T15:01:26.631Z,10.90
2018-10-01T15:04:40.217Z,11.00
2018-10-01T15:07:50.237Z,11.00
2018-10-01T15:11:00.249Z,10.80
2018-10-01T15:14:12.663Z,10.70
2018-10-01T15:17:22.841Z,10.70
2018-10-01T15:20:32.667Z,10.70
2018-10-01T15:23:45.583Z,10.50
2018-10-01T15:26:53.700Z,10.60
2018-10-01T15:30:00.864Z,10.60
2018-10-01T15:33:08.008Z,10.70
2018-10-01T15:36:14.494Z,10.70
2018-10-01T15:39:24.197Z,10.90
2018-10-01T15:42:33.743Z,11.10
2018-10-01T15:45:45.584Z,11.20
2018-10-01T15:48:55.084Z,11.30
2018-10-01T15:52:01.365Z,11.30
2018-10-01T15:55:07.930Z,11.40
2018-10-01T15:58:16.100Z,11.30
2018-10-01T16:01:22.612Z,11.30
2018-10-01T16:04:31.581Z,11.30
2018-10-01T16:07:38.740Z,11.30
2018-10-01T16:10:45.858Z,11.30
2018-10-01T16:13:52.146Z,11.30
2018-10-01T16:16:58.451Z,11.30
2018-10-01T16:20:04.629Z,11.30
2018-10-01T16:23:17.556Z,10.90
2018-10-01T16:26:24.651Z,10.20
2018-10-01T16:29:32.023Z,9.90
2018-10-01T16:32:39.057Z,9.50
2018-10-01T16:35:45.515Z,9.30
2018-10-01T16:38:53.743Z,9.20
2018-10-01T16:42:00.134Z,9.10
2018-10-01T16:45:06.392Z,9.00
2018-10-01T16:48:13.675Z,9.00
2018-10-01T16:51:19.976Z,9.00
2018-10-01T16:54:26.968Z,8.90
2018-10-01T16:57:34.131Z,8.80
2018-10-01T17:00:40.494Z,8.70
2018-10-01T17:03:47.716Z,8.60
2018-10-01T17:06:54.774Z,8.50
2018-10-01T17:10:01.964Z,8.30
2018-10-01T17:13:09.142Z,8.20
2018-10-01T17:16:15.414Z,8.00
2018-10-01T17:19:22.504Z,7.90
2018-10-01T17:22:29.610Z,7.80
2018-10-01T17:25:36.103Z,7.70
2018-10-01T17:28:43.994Z,7.70
2018-10-01T17:31:51.241Z,7.70
2018-10-01T17:34:58.326Z,7.80
2018-10-01T17:38:05.515Z,7.90
2018-10-01T17:41:13.880Z,8.00
2018-10-01T17:44:21.185Z,8.10
2018-10-01T17:47:28.310Z,8.20
2018-10-01T17:50:34.558Z,8.30
2018-10-01T17:53:41.784Z,8.30
2018-10-01T17:56:48.898Z,8.30
2018-10-01T17:59:56.360Z,8.10
2018-10-01T18:03:04.428Z,8.10
2018-10-01T18:06:11.037Z,8.10
2018-10-01T18:09:20.835Z,8.00
2018-10-01T18:12:27.369Z,8.10
2018-10-01T18:15:36.313Z,8.10
2018-10-01T18:18:43.651Z,8.00
2018-10-01T18:21:51.189Z,8.00
2018-10-01T18:24:59.446Z,8.00
2018-10-01T18:28:07.436Z,7.90
2018-10-01T18:31:14.974Z,7.80
2018-10-01T18:34:22.943Z,7.90
2018-10-01T18:37:29.239Z,7.90
2018-10-01T18:40:36.487Z,7.90
2018-10-01T18:43:43.500Z,7.90
2018-10-01T18:46:55.583Z,7.90
2018-10-01T18:50:02.638Z,7.80
2018-10-01T18:53:08.939Z,7.80
2018-10-01T18:56:15.299Z,7.80
2018-10-01T18:59:22.252Z,7.90
2018-10-01T19:02:29.567Z,7.80
2018-10-01T19:05:36.874Z,7.90
2018-10-01T19:08:42.932Z,7.80
2018-10-01T19:11:50.231Z,7.80
2018-10-01T19:14:56.582Z,7.70
2018-10-01T19:18:04.106Z,7.60
2018-10-01T19:21:11.271Z,7.50
2018-10-01T19:24:18.453Z,7.50
2018-10-01T19:27:25.703Z,7.50
2018-10-01T19:30:32.603Z,7.50
2018-10-01T19:33:39.898Z,7.50
2018-10-01T19:36:46.954Z,7.50
2018-10-01T19:39:54.416Z,7.50
2018-10-01T19:43:01.485Z,7.40
2018-10-01T19:46:08.372Z,7.30
2018-10-01T19:49:15.495Z,7.30
2018-10-01T19:52:22.863Z,7.30
2018-10-01T19:55:30.155Z,7.30
2018-10-01T19:58:36.522Z,7.30
2018-10-01T20:01:42.896Z,7.30
2018-10-01T20:04:50.211Z,7.30
2018-10-01T20:07:57.532Z,7.30
2018-10-01T20:11:04.755Z,7.30
2018-10-01T20:14:13.094Z,7.20
2018-10-01T20:17:21.335Z,7.20
2018-10-01T20:20:28.399Z,7.30
2018-10-01T20:23:35.874Z,7.30
2018-10-01T20:26:43.311Z,7.30
2018-10-01T20:29:49.621Z,7.30
2018-10-01T20:32:56.665Z,7.30
2018-10-01T20:36:03.219Z,7.20
2018-10-01T20:39:12.206Z,7.20
2018-10-01T20:42:19.486Z,7.20
2018-10-01T20:45:26.517Z,7.10
2018-10-01T20:48:33.751Z,7.10
2018-10-01T20:51:40.910Z,7.10
2018-10-01T20:54:48.137Z,7.10
2018-10-01T20:57:55.173Z,7.00
2018-10-01T21:01:02.425Z,7.00
2018-10-01T21:04:09.631Z,7.00
2018-10-01T21:07:16.707Z,7.00
2018-10-01T21:10:23.906Z,7.00
2018-10-01T21:13:30.378Z,7.10
2018-10-01T21:16:36.642Z,7.10
2018-10-01T21:19:44.156Z,7.10
2018-10-01T21:22:51.154Z,7.00
2018-10-01T21:25:58.183Z,7.00
2018-10-01T21:29:05.192Z,7.00
2018-10-01T21:32:12.544Z,7.00
2018-10-01T21:35:19.784Z,6.90
2018-10-01T21:38:26.862Z,6.90
2018-10-01T21:41:34.327Z,6.90
2018-10-01T21:44:41.695Z,6.90
2018-10-01T21:47:48.083Z,6.90
2018-10-01T21:50:55.298Z,6.90
2018-10-01T21:54:02.580Z,6.80
2018-10-01T21:57:09.716Z,6.90
2018-10-01T22:00:16.988Z,6.90
2018-10-01T22:03:24.230Z,6.90
2018-10-01T22:06:31.440Z,6.90
2018-10-01T22:09:37.682Z,6.80
2018-10-01T22:12:52.868Z,6.90
2018-10-01T22:16:00.157Z,6.90
2018-10-01T22:19:06.572Z,6.90
2018-10-01T22:22:13.740Z,6.90
2018-10-01T22:25:20.846Z,6.90
2018-10-01T22:28:28.371Z,6.90
2018-10-01T22:31:35.585Z,6.80
2018-10-01T22:34:42.119Z,6.80
2018-10-01T22:37:49.391Z,6.80
2018-10-01T22:40:56.608Z,6.80
2018-10-01T22:44:03.616Z,6.70
2018-10-01T22:47:10.049Z,6.70
2018-10-01T22:50:16.382Z,6.70
2018-10-01T22:53:22.749Z,6.70
2018-10-01T22:56:29.049Z,6.70
2018-10-01T22:59:36.312Z,6.60
2018-10-01T23:02:43.512Z,6.50
2018-10-01T23:05:51.017Z,6.50
2018-10-01T23:08:57.323Z,6.40
2018-10-01T23:12:04.459Z,6.40
2018-10-01T23:15:11.817Z,6.30
2018-10-01T23:18:18.763Z,6.30
2018-10-01T23:21:26.151Z,6.30
2018-10-01T23:24:33.422Z,6.30
2018-10-01T23:27:40.677Z,6.20
2018-10-01T23:30:47.985Z,6.20
2018-10-01T23:33:55.257Z,6.10
2018-10-01T23:37:02.345Z,6.10
2018-10-01T23:40:09.765Z,6.10
2018-10-01T23:43:17.037Z,6.00
2018-10-01T23:46:23.403Z,6.00
2018-10-01T23:49:30.579Z,5.90
2018-10-01T23:52:37.800Z,5.80
2018-10-01T23:55:45.089Z,5.80
2018-10-01T23:58:52.331Z,5.70
